Time;durP1;ratioP1;P1;durP2;ratioP2;P2;SDS_P1;SDS_P2;PMS_P1;PMS_P2;Temp;Humidity;BMP_temperature;BMP_pressure;BME280_temperature;BME280_humidity;BME280_pressure;Samples;Min_cycle;Max_cycle;Signal;HPM_P1;HPM_P2
2022/11/03 00:01:54;;;;;;;;;;;15.20;99.90;;;;;;5110778;28;20282;-74
2022/11/03 00:04:21;;;;;;;;;;;15.10;99.90;;;;;;5121103;27;19962;-73
2022/11/03 00:06:51;;;;;;;;;;;15.00;99.90;;;;;;5118500;27;20050;-73
2022/11/03 00:09:17;;;;;;;;;;;15.00;99.90;;;;;;5141042;27;19922;-73
2022/11/03 00:11:43;;;;;;;;;;;14.80;99.90;;;;;;5131788;27;20456;-74
2022/11/03 00:14:09;;;;;;;;;;;14.70;99.90;;;;;;5109412;27;19915;-74
2022/11/03 00:16:35;;;;;;;;;;;14.40;99.90;;;;;;5096469;28;20421;-75
2022/11/03 00:19:01;;;;;;;;;;;14.10;99.90;;;;;;5113616;27;19915;-75
2022/11/03 00:21:27;;;;;;;;;;;13.70;99.90;;;;;;5140262;27;19915;-76
2022/11/03 00:23:52;;;;;;;;;;;13.20;99.90;;;;;;5103006;27;19915;-75
2022/11/03 00:26:22;;;;;;;;;;;12.70;99.90;;;;;;5122370;27;19927;-75
2022/11/03 00:28:51;;;;;;;;;;;12.40;99.90;;;;;;5122512;27;20002;-75
2022/11/03 00:31:20;;;;;;;;;;;12.10;99.90;;;;;;5103899;27;20079;-75
2022/11/03 00:33:46;;;;;;;;;;;12.00;99.90;;;;;;5138746;27;19960;-73
2022/11/03 00:36:12;;;;;;;;;;;11.90;99.90;;;;;;5126903;27;20445;-74
2022/11/03 00:38:38;;;;;;;;;;;11.90;99.90;;;;;;5118110;27;20006;-75
2022/11/03 00:41:04;;;;;;;;;;;11.90;99.90;;;;;;5127441;27;20014;-75
2022/11/03 00:43:31;;;;;;;;;;;11.90;99.90;;;;;;5131008;27;19975;-75
2022/11/03 00:45:56;;;;;;;;;;;11.90;99.90;;;;;;5104341;27;20412;-75
2022/11/03 00:48:31;;;;;;;;;;;11.90;99.90;;;;;;5103919;28;19911;-75
2022/11/03 00:51:00;;;;;;;;;;;11.90;99.90;;;;;;5133224;27;19933;-75
2022/11/03 00:53:25;;;;;;;;;;;11.80;99.90;;;;;;5091374;27;20023;-75
2022/11/03 00:55:50;;;;;;;;;;;11.90;99.90;;;;;;5123706;27;20381;-75
2022/11/03 00:58:16;;;;;;;;;;;11.90;99.90;;;;;;5136048;27;19922;-74
2022/11/03 01:00:41;;;;;;;;;;;12.10;99.90;;;;;;5133376;27;19931;-75
2022/11/03 01:03:07;;;;;;;;;;;12.30;99.90;;;;;;5105961;27;19923;-75
2022/11/03 01:08:17;;;;;;;;;;;13.00;99.90;;;;;;5101422;28;19991;-75
2022/11/03 01:13:26;;;;;;;;;;;13.30;99.90;;;;;;5132217;27;20010;-75
2022/11/03 01:15:55;;;;;;;;;;;13.50;99.90;;;;;;5128240;27;20022;-73
2022/11/03 01:18:20;;;;;;;;;;;13.50;99.90;;;;;;5119337;27;19941;-73
2022/11/03 01:20:46;;;;;;;;;;;13.60;99.90;;;;;;5090147;28;19912;-73
2022/11/03 01:23:11;;;;;;;;;;;13.70;99.90;;;;;;5130823;27;20046;-72
2022/11/03 01:25:37;;;;;;;;;;;13.70;99.90;;;;;;5135117;27;20025;-73
2022/11/03 01:28:02;;;;;;;;;;;13.70;99.90;;;;;;5117002;27;19971;-75
2022/11/03 01:30:28;;;;;;;;;;;13.70;99.90;;;;;;5112766;27;19923;-74
2022/11/03 01:32:54;;;;;;;;;;;13.70;99.90;;;;;;5139706;27;20419;-73
2022/11/03 01:35:19;;;;;;;;;;;13.60;99.90;;;;;;5103593;27;20246;-72
2022/11/03 01:37:45;;;;;;;;;;;13.60;99.90;;;;;;5093631;27;19923;-73
2022/11/03 01:40:10;;;;;;;;;;;13.60;99.90;;;;;;5132706;27;19941;-74
2022/11/03 01:42:36;;;;;;;;;;;13.50;99.90;;;;;;5115262;27;20304;-72
2022/11/03 01:45:01;;;;;;;;;;;13.50;99.90;;;;;;5110315;27;19923;-76
2022/11/03 01:47:28;;;;;;;;;;;13.50;99.90;;;;;;5139036;27;19915;-75
2022/11/03 01:50:08;;;;;;;;;;;13.40;99.90;;;;;;5114915;27;20048;-76
2022/11/03 01:52:35;;;;;;;;;;;13.30;99.90;;;;;;5102565;27;19937;-76
2022/11/03 01:55:11;;;;;;;;;;;13.30;99.90;;;;;;5091212;28;20006;-75
2022/11/03 01:57:39;;;;;;;;;;;13.30;99.90;;;;;;5099762;28;19915;-74
2022/11/03 02:00:05;;;;;;;;;;;13.30;99.90;;;;;;5130508;27;19916;-72
2022/11/03 02:02:31;;;;;;;;;;;13.40;99.90;;;;;;5091971;27;19919;-72
2022/11/03 02:04:57;;;;;;;;;;;13.40;99.90;;;;;;5122492;27;19930;-74
2022/11/03 02:07:29;;;;;;;;;;;13.60;99.90;;;;;;5110199;27;19912;-76
2022/11/03 02:09:55;;;;;;;;;;;13.60;99.90;;;;;;5136237;27;20366;-76
2022/11/03 02:12:21;;;;;;;;;;;13.70;99.90;;;;;;5109354;27;19915;-76
2022/11/03 02:15:05;;;;;;;;;;;13.80;99.90;;;;;;5132321;27;19923;-77
2022/11/03 02:17:31;;;;;;;;;;;13.80;99.90;;;;;;5127911;27;19915;-76
2022/11/03 02:19:58;;;;;;;;;;;13.90;99.90;;;;;;5117737;27;20000;-77
2022/11/03 02:22:29;;;;;;;;;;;13.90;99.90;;;;;;5103005;27;20390;-77
2022/11/03 02:25:01;;;;;;;;;;;13.90;99.90;;;;;;5134399;27;19962;-77
2022/11/03 02:27:26;;;;;;;38.28;5.88;;;13.90;99.90;;;;;;5115779;27;20050;-77
2022/11/03 02:29:53;;;;;;;42.47;6.28;;;13.90;99.90;;;;;;5127698;27;20645;-77
2022/11/03 02:32:37;;;;;;;21.70;3.83;;;13.90;99.90;;;;;;5103786;27;20024;-79
2022/11/03 02:35:27;;;;;;;40.58;5.75;;;13.90;99.90;;;;;;5103138;28;20489;-77
2022/11/03 02:37:58;;;;;;;31.20;4.55;;;13.90;99.90;;;;;;5137809;27;20174;-77
2022/11/03 02:40:33;;;;;;;34.72;4.60;;;13.90;99.90;;;;;;5124315;27;20366;-78
2022/11/03 02:43:00;;;;;;;34.38;5.07;;;13.90;99.90;;;;;;5112525;27;20034;-77
2022/11/03 02:45:27;;;;;;;25.08;4.30;;;14.00;99.90;;;;;;5108542;27;20138;-78
2022/11/03 02:47:56;;;;;;;21.33;3.45;;;13.90;99.90;;;;;;5085883;27;20031;-75
2022/11/03 02:50:27;;;;;;;15.20;2.65;;;13.70;99.90;;;;;;5091596;27;20027;-74
2022/11/03 02:52:53;;;;;;;11.13;1.60;;;13.40;99.90;;;;;;5101801;27;20070;-75
2022/11/03 02:55:50;;;;;;;9.35;2.15;;;13.20;99.90;;;;;;5129126;27;20525;-75
2022/11/03 02:58:18;;;;;;;15.35;1.67;;;13.10;99.90;;;;;;5115440;27;20058;-74
2022/11/03 03:01:03;;;;;;;13.77;2.15;;;13.00;99.90;;;;;;5123353;27;20558;-74
2022/11/03 03:03:36;;;;;;;13.13;1.70;;;13.00;99.90;;;;;;5115429;27;20125;-73
2022/11/03 03:06:09;;;;;;;13.88;2.58;;;13.10;99.90;;;;;;5124298;27;20074;-74
2022/11/03 03:08:40;;;;;;;15.85;2.38;;;13.20;99.90;;;;;;5132084;27;20118;-74
2022/11/03 03:11:10;;;;;;;13.40;3.15;;;13.20;99.90;;;;;;5116912;27;20045;-74
2022/11/03 03:13:36;;;;;;;11.70;2.22;;;13.30;99.90;;;;;;5122450;27;20091;-74
2022/11/03 03:16:11;;;;;;;9.07;1.05;;;13.40;99.90;;;;;;5098536;28;20035;-74
2022/11/03 03:18:40;;;;;;;8.23;1.02;;;13.30;99.90;;;;;;5096619;27;20019;-73
2022/11/03 03:21:28;;;;;;;5.20;0.95;;;13.30;99.90;;;;;;5112419;27;20655;-73
2022/11/03 03:24:01;;;;;;;4.47;0.75;;;13.10;99.90;;;;;;5137944;27;20096;-74
2022/11/03 03:26:37;;;;;;;7.18;0.38;;;13.00;99.90;;;;;;5090929;27;20152;-75
2022/11/03 03:29:10;;;;;;;7.85;0.60;;;12.90;99.90;;;;;;5109831;27;20038;-75
2022/11/03 03:31:40;;;;;;;5.82;0.70;;;12.90;99.90;;;;;;5132310;27;20030;-75
2022/11/03 03:34:07;;;;;;;6.07;0.82;;;12.80;99.90;;;;;;5100383;27;20027;-75
2022/11/03 03:36:35;;;;;;;9.88;1.30;;;13.00;99.90;;;;;;5109134;27;20227;-75
2022/11/03 03:39:03;;;;;;;6.10;1.40;;;13.40;99.90;;;;;;5119134;27;20112;-74
2022/11/03 03:41:31;;;;;;;7.22;0.73;;;13.60;99.90;;;;;;5095916;27;20035;-75
2022/11/03 03:44:02;;;;;;;6.38;0.45;;;13.90;99.90;;;;;;5101578;27;20110;-75
2022/11/03 03:46:38;;;;;;;0.98;0.30;;;14.10;99.90;;;;;;5101220;27;20168;-72
2022/11/03 03:49:04;;;;;;;3.55;0.35;;;14.00;99.90;;;;;;5127823;27;20045;-74
2022/11/03 03:51:30;;;;;;;6.75;0.60;;;13.90;99.90;;;;;;5137695;27;20040;-76
2022/11/03 03:53:56;;;;;;;7.90;1.15;;;14.00;99.90;;;;;;5104543;27;20043;-75
2022/11/03 03:56:36;;;;;;;8.95;0.88;;;14.00;99.90;;;;;;5080054;28;20490;-74
2022/11/03 03:59:03;;;;;;;9.52;0.80;;;14.00;99.90;;;;;;5083903;28;20036;-75
2022/11/03 04:01:29;;;;;;;9.20;0.80;;;14.10;99.90;;;;;;5106767;27;20108;-75
2022/11/03 04:03:54;;;;;;;8.13;0.90;;;14.10;99.90;;;;;;5098784;28;20170;-75
2022/11/03 04:06:20;;;;;;;5.50;0.60;;;14.20;99.90;;;;;;5126833;27;20206;-74
2022/11/03 04:08:45;;;;;;;4.40;0.60;;;14.10;99.90;;;;;;5083795;28;20409;-75
2022/11/03 04:22:20;;;;;;;13.23;1.65;;;14.50;99.90;;;;;;5100284;28;20030;-73
2022/11/03 04:24:50;;;;;;;13.13;1.45;;;14.90;99.90;;;;;;5078057;28;20041;-73
2022/11/03 04:27:29;;;;;;;17.10;2.40;;;15.00;99.90;;;;;;5086366;28;20205;-74
2022/11/03 04:30:14;;;;;;;14.85;2.25;;;15.10;99.90;;;;;;5094105;27;20035;-73
2022/11/03 04:32:40;;;;;;;13.13;1.45;;;15.30;99.90;;;;;;5102952;27;20023;-74
2022/11/03 04:35:18;;;;;;;4.78;1.23;;;15.20;99.90;;;;;;5110756;27;20111;-75
2022/11/03 04:37:47;;;;;;;11.00;1.35;;;15.20;99.90;;;;;;5097912;27;20140;-75
2022/11/03 04:40:17;;;;;;;10.02;2.35;;;15.00;99.90;;;;;;5095115;28;20398;-74
2022/11/03 04:42:43;;;;;;;18.20;2.20;;;15.00;99.90;;;;;;5076885;28;20054;-75
2022/11/03 04:45:24;;;;;;;17.77;2.30;;;15.00;99.90;;;;;;5084971;27;20484;-75
2022/11/03 04:47:51;;;;;;;19.17;4.78;;;15.10;99.90;;;;;;5115809;27;20034;-74
2022/11/03 04:50:20;;;;;;;25.58;5.22;;;15.20;99.90;;;;;;5107319;27;20047;-74
2022/11/03 04:52:58;;;;;;;29.65;5.38;;;15.50;99.90;;;;;;5100627;28;20034;-73
2022/11/03 04:55:25;;;;;;;29.67;5.15;;;15.60;99.90;;;;;;5084258;27;20051;-74
2022/11/03 04:58:01;;;;;;;20.95;4.35;;;15.60;99.90;;;;;;5137267;27;20158;-75
2022/11/03 05:00:27;;;;;;;22.55;4.15;;;15.70;99.90;;;;;;5098049;28;20334;-75
2022/11/03 05:02:52;;;;;;;38.47;5.90;;;15.70;99.90;;;;;;5077958;28;20770;-75
2022/11/03 05:05:24;;;;;;;30.90;5.80;;;15.80;99.90;;;;;;5105051;27;20034;-75
2022/11/03 05:07:52;;;;;;;32.65;6.13;;;15.80;99.90;;;;;;5111216;27;20061;-75
2022/11/03 05:10:27;;;;;;;40.53;6.03;;;15.80;99.90;;;;;;5122365;27;20066;-75
2022/11/03 05:12:54;;;;;;;28.63;4.97;;;15.70;99.90;;;;;;5083562;28;20327;-73
2022/11/03 05:15:34;;;;;;;32.33;5.53;;;15.80;99.90;;;;;;5134318;27;20239;-73
2022/11/03 05:18:02;;;;;;;28.65;6.13;;;15.80;99.90;;;;;;5127684;27;20088;-74
2022/11/03 05:20:35;;;;;;;27.50;6.03;;;15.80;99.90;;;;;;5094239;27;20023;-74
2022/11/03 05:23:01;;;;;;;32.22;6.32;;;15.90;99.90;;;;;;5102066;28;20050;-74
2022/11/03 05:25:48;;;;;;;30.95;4.88;;;15.70;99.90;;;;;;5131809;27;20257;-74
2022/11/03 05:28:19;;;;;;;28.95;4.43;;;15.80;99.90;;;;;;5117338;27;20608;-74
2022/11/03 05:30:47;;;;;;;31.67;3.92;;;15.70;99.90;;;;;;5121487;27;20485;-74
2022/11/03 05:33:32;;;;;;;17.75;4.40;;;15.70;99.90;;;;;;5114585;27;20038;-73
2022/11/03 05:36:02;;;;;;;18.88;3.03;;;15.50;99.90;;;;;;5109723;27;20038;-72
2022/11/03 05:38:32;;;;;;;26.13;4.38;;;15.40;99.90;;;;;;5140590;27;20062;-74
2022/11/03 05:40:58;;;;;;;25.60;4.28;;;15.30;99.90;;;;;;5142897;27;20107;-74
2022/11/03 05:43:26;;;;;;;21.77;4.88;;;15.30;99.90;;;;;;5121745;27;20031;-74
2022/11/03 05:45:55;;;;;;;27.27;4.72;;;15.30;99.90;;;;;;5121172;27;20136;-74
2022/11/03 05:48:37;;;;;;;17.17;3.88;;;15.30;99.90;;;;;;5103075;27;20478;-74
2022/11/03 05:51:19;;;;;;;19.20;3.65;;;15.30;99.90;;;;;;5110849;27;20334;-74
2022/11/03 05:53:47;;;;;;;19.42;3.00;;;15.20;99.90;;;;;;5099855;28;20028;-73
2022/11/03 05:56:18;;;;;;;22.80;2.72;;;15.10;99.90;;;;;;5126298;27;20023;-74
2022/11/03 05:58:45;;;;;;;17.65;2.17;;;15.00;99.90;;;;;;5112563;27;20439;-73
2022/11/03 06:01:14;;;;;;;19.00;2.80;;;15.00;99.90;;;;;;5140273;27;20493;-74
2022/11/03 06:03:40;;;;;;;15.80;2.10;;;14.90;99.90;;;;;;5130505;27;20077;-74
2022/11/03 06:06:15;;;;;;;13.40;2.15;;;15.00;99.90;;;;;;5102154;27;20061;-74
2022/11/03 06:08:41;;;;;;;12.43;2.65;;;15.00;99.90;;;;;;5125408;27;20023;-74
2022/11/03 06:11:13;;;;;;;16.75;2.60;;;15.00;99.90;;;;;;5097776;27;20118;-74
2022/11/03 06:13:39;;;;;;;12.35;1.80;;;15.00;99.90;;;;;;5123213;27;20050;-74
2022/11/03 06:16:32;;;;;;;12.90;2.00;;;15.20;99.90;;;;;;5139989;27;20474;-76
2022/11/03 06:19:00;;;;;;;13.75;2.22;;;15.10;99.90;;;;;;5142287;27;20257;-74
2022/11/03 06:21:26;;;;;;;21.52;2.80;;;15.00;99.90;;;;;;5132135;27;20027;-73
2022/11/03 06:23:53;;;;;;;8.48;2.20;;;14.80;99.90;;;;;;5099107;27;20034;-75
2022/11/03 06:26:26;;;;;;;23.95;3.80;;;14.70;99.90;;;;;;5111725;27;20570;-74
2022/11/03 06:28:52;;;;;;;31.95;3.40;;;14.70;99.90;;;;;;5080025;27;20147;-74
2022/11/03 06:31:27;;;;;;;25.90;4.20;;;14.40;99.90;;;;;;5098401;28;20504;-73
2022/11/03 06:33:54;;;;;;;25.15;3.95;;;14.30;99.90;;;;;;5106247;27;20539;-74
2022/11/03 06:36:26;;;;;;;18.65;2.70;;;14.40;99.90;;;;;;5122156;27;20042;-74
2022/11/03 06:38:55;;;;;;;10.70;1.98;;;14.10;99.90;;;;;;5097424;28;20054;-74
2022/11/03 06:41:26;;;;;;;25.80;1.98;;;14.10;99.90;;;;;;5119333;27;20042;-74
2022/11/03 06:43:51;;;;;;;17.60;2.42;;;13.90;99.90;;;;;;5112331;27;20076;-76
2022/11/03 06:46:19;;;;;;;25.58;2.80;;;13.90;99.90;;;;;;5087086;27;20047;-74
2022/11/03 06:48:44;;;;;;;5.32;0.50;;;14.00;99.90;;;;;;5114434;27;20331;-74
2022/11/03 06:51:29;;;;;;;3.92;0.60;;;13.80;99.90;;;;;;5117043;27;20065;-73
2022/11/03 06:53:59;;;;;;;2.80;0.38;;;13.20;99.90;;;;;;5116227;27;20063;-74
2022/11/03 06:56:30;;;;;;;1.27;0.20;;;13.00;99.90;;;;;;5118763;27;20034;-74
2022/11/03 06:58:56;;;;;;;2.25;0.40;;;12.90;99.90;;;;;;5095085;27;20031;-74
2022/11/03 07:01:25;;;;;;;1.33;0.50;;;12.90;99.90;;;;;;5112981;27;20023;-75
2022/11/03 07:04:00;;;;;;;4.15;0.47;;;12.80;99.90;;;;;;5098527;27;20058;-74
2022/11/03 07:06:30;;;;;;;3.58;0.40;;;12.70;99.90;;;;;;5098701;27;20285;-73
2022/11/03 07:08:59;;;;;;;3.28;0.32;;;12.70;99.90;;;;;;5114276;27;20031;-74
2022/11/03 07:11:48;;;;;;;3.92;0.50;;;12.70;99.90;;;;;;5119154;27;20084;-74
2022/11/03 07:14:23;;;;;;;2.25;0.35;;;12.60;99.90;;;;;;5098532;27;20042;-74
2022/11/03 07:16:54;;;;;;;2.22;0.50;;;12.50;99.90;;;;;;5114758;27;20577;-74
2022/11/03 07:19:23;;;;;;;5.63;0.45;;;12.60;99.90;;;;;;5101338;27;20457;-74
2022/11/03 07:21:56;;;;;;;6.03;0.77;;;12.40;99.90;;;;;;5119946;27;20071;-74
2022/11/03 07:24:44;;;;;;;2.15;0.43;;;12.50;99.90;;;;;;5115245;27;20015;-74
2022/11/03 07:27:22;;;;;;;1.73;0.30;;;12.30;99.90;;;;;;5099174;27;20035;-74
2022/11/03 07:29:50;;;;;;;2.53;0.50;;;12.40;99.90;;;;;;5111057;27;20042;-75
2022/11/03 07:32:19;;;;;;;3.25;0.40;;;12.30;99.90;;;;;;5095731;27;20112;-74
2022/11/03 07:34:46;;;;;;;1.77;0.63;;;12.20;99.90;;;;;;5109485;27;20393;-74
2022/11/03 07:37:20;;;;;;;3.78;0.73;;;12.20;99.90;;;;;;5112678;27;20079;-73
2022/11/03 07:39:45;;;;;;;0.68;0.40;;;12.20;99.90;;;;;;5116421;27;20080;-74
2022/11/03 07:42:18;;;;;;;2.35;0.40;;;12.20;99.90;;;;;;5114768;27;20118;-74
2022/11/03 07:44:44;;;;;;;6.97;0.55;;;12.10;99.90;;;;;;5115884;27;20479;-75
2022/11/03 07:47:15;;;;;;;3.97;0.50;;;12.20;99.90;;;;;;5093794;27;20031;-74
2022/11/03 07:49:41;;;;;;;5.43;0.75;;;12.10;99.90;;;;;;5108352;27;20054;-74
2022/11/03 07:52:12;;;;;;;7.30;0.70;;;12.10;99.90;;;;;;5101482;27;20114;-74
2022/11/03 07:54:38;;;;;;;4.32;0.68;;;12.20;99.90;;;;;;5095539;27;20480;-74
2022/11/03 07:57:14;;;;;;;7.10;0.40;;;12.10;99.90;;;;;;5119177;27;20401;-75
2022/11/03 07:59:44;;;;;;;3.53;0.70;;;12.20;99.90;;;;;;5126145;27;20026;-74
2022/11/03 08:02:30;;;;;;;5.78;0.63;;;12.20;99.90;;;;;;5113793;27;20064;-74
2022/11/03 08:04:57;;;;;;;4.68;0.50;;;12.30;99.90;;;;;;5081786;28;20494;-74
2022/11/03 08:07:23;;;;;;;3.05;0.63;;;12.30;99.90;;;;;;5117196;27;20043;-74
2022/11/03 08:09:49;;;;;;;4.82;0.60;;;12.30;99.90;;;;;;5098645;28;20024;-74
2022/11/03 08:12:14;;;;;;;4.80;0.40;;;12.30;99.90;;;;;;5114189;27;20027;-74
2022/11/03 08:14:40;;;;;;;2.75;0.63;;;12.30;99.90;;;;;;5137947;27;20135;-74
2022/11/03 08:17:06;;;;;;;4.30;0.73;;;12.30;99.90;;;;;;5107418;28;20027;-72
2022/11/03 08:19:32;;;;;;;2.03;0.60;;;12.30;99.90;;;;;;5092084;27;20031;-73
2022/11/03 08:21:57;;;;;;;2.13;0.40;;;12.30;99.90;;;;;;5113935;27;20103;-73
2022/11/03 08:24:23;;;;;;;4.30;0.50;;;12.30;99.90;;;;;;5103290;27;20031;-73
2022/11/03 08:26:49;;;;;;;4.18;0.60;;;12.30;99.90;;;;;;5088626;27;20039;-74
2022/11/03 08:29:16;;;;;;;3.63;0.60;;;12.20;99.90;;;;;;5107787;27;20024;-74
2022/11/03 08:31:42;;;;;;;3.13;0.60;;;12.30;99.90;;;;;;5110796;27;20058;-74
2022/11/03 08:34:08;;;;;;;2.72;0.60;;;12.20;99.90;;;;;;5103363;27;20066;-74
2022/11/03 08:36:34;;;;;;;3.20;0.50;;;12.30;99.90;;;;;;5093677;28;20059;-76
2022/11/03 08:39:00;;;;;;;2.40;0.60;;;12.30;99.90;;;;;;5106249;27;20109;-74
2022/11/03 08:41:26;;;;;;;5.95;0.70;;;12.20;99.90;;;;;;5107205;27;20076;-74
2022/11/03 08:43:51;;;;;;;1.70;0.55;;;12.20;99.90;;;;;;5118057;27;20362;-74
2022/11/03 08:46:17;;;;;;;5.07;0.68;;;12.20;99.90;;;;;;5121567;27;20031;-74
2022/11/03 08:48:43;;;;;;;2.60;0.50;;;12.20;99.90;;;;;;5143180;27;20521;-74
2022/11/03 08:51:12;;;;;;;9.05;0.80;;;12.20;99.90;;;;;;5131817;27;20034;-74
2022/11/03 08:53:38;;;;;;;5.35;1.00;;;12.20;99.90;;;;;;5138407;27;20047;-74
2022/11/03 08:56:04;;;;;;;6.75;1.35;;;12.20;99.90;;;;;;5122654;27;20039;-74
2022/11/03 08:58:30;;;;;;;9.05;1.40;;;12.20;99.90;;;;;;5102593;27;20626;-74
2022/11/03 09:00:56;;;;;;;7.63;1.58;;;12.20;99.90;;;;;;5121547;27;20130;-74
2022/11/03 09:03:22;;;;;;;9.55;1.73;;;12.20;99.90;;;;;;5122236;27;20023;-74
2022/11/03 09:05:47;;;;;;;6.30;1.50;;;12.20;99.90;;;;;;5127354;27;20034;-74
2022/11/03 09:08:13;;;;;;;9.85;1.67;;;12.30;99.90;;;;;;5104022;27;20041;-74
2022/11/03 09:10:38;;;;;;;6.68;1.02;;;12.30;99.90;;;;;;5121707;27;20123;-72
2022/11/03 09:13:04;;;;;;;10.85;1.55;;;12.40;99.90;;;;;;5095110;27;20023;-71
2022/11/03 09:15:30;;;;;;;6.35;0.85;;;12.50;99.90;;;;;;5091027;27;20480;-72
2022/11/03 09:17:56;;;;;;;7.22;1.45;;;12.60;99.90;;;;;;5118259;27;20486;-72
2022/11/03 09:20:22;;;;;;;13.73;1.42;;;12.70;99.90;;;;;;5116055;27;20027;-72
2022/11/03 09:22:47;;;;;;;14.07;1.75;;;12.80;99.90;;;;;;5111829;27;20034;-72
2022/11/03 09:25:13;;;;;;;15.40;1.50;;;12.90;99.90;;;;;;5106162;27;20035;-72
2022/11/03 09:27:39;;;;;;;11.60;2.63;;;13.00;99.90;;;;;;5110578;27;20062;-72
2022/11/03 09:30:05;;;;;;;13.88;1.45;;;13.00;99.90;;;;;;5115496;27;20943;-72
2022/11/03 09:32:32;;;;;;;13.18;1.70;;;13.10;99.90;;;;;;5106848;27;20026;-72
2022/11/03 09:34:57;;;;;;;12.43;1.92;;;13.00;99.90;;;;;;5103350;27;20027;-72
2022/11/03 09:37:23;;;;;;;9.15;1.25;;;13.00;99.90;;;;;;5104524;27;20042;-73
2022/11/03 09:39:49;;;;;;;8.20;1.45;;;13.00;99.90;;;;;;5117705;27;20058;-72
2022/11/03 09:42:16;;;;;;;10.23;2.17;;;13.00;99.90;;;;;;5085026;27;20504;-72
2022/11/03 09:44:41;;;;;;;9.88;2.25;;;13.00;99.90;;;;;;4747548;27;10000597;-72
2022/11/03 09:47:18;;;;;;;14.57;1.98;;;13.00;99.90;;;;;;5105932;27;20494;-73
2022/11/03 09:49:44;;;;;;;15.02;2.13;;;13.00;99.90;;;;;;5105054;27;20402;-73
2022/11/03 09:52:22;;;;;;;11.23;2.00;;;13.10;99.90;;;;;;5111995;27;20370;-74
2022/11/03 09:54:48;;;;;;;12.70;1.92;;;13.10;99.90;;;;;;5090876;27;20035;-74
2022/11/03 09:57:15;;;;;;;12.90;1.92;;;13.20;99.90;;;;;;5113482;27;20063;-74
2022/11/03 09:59:44;;;;;;;9.80;2.17;;;13.20;99.90;;;;;;5118028;27;20027;-74
2022/11/03 10:02:23;;;;;;;7.57;1.30;;;13.10;99.90;;;;;;5084842;27;20130;-74
2022/11/03 10:04:51;;;;;;;10.40;1.48;;;13.10;99.90;;;;;;5103168;27;20475;-74
2022/11/03 10:07:17;;;;;;;10.13;1.13;;;13.00;99.90;;;;;;4732582;27;9999952;-74
2022/11/03 10:09:46;;;;;;;106.88;56.35;;;13.00;99.90;;;;;;5102239;27;20034;-73
2022/11/03 10:12:12;;;;;;;9.35;3.17;;;13.00;99.90;;;;;;5100646;27;20032;-74
2022/11/03 10:14:39;;;;;;;8.65;1.65;;;13.00;99.90;;;;;;5085515;27;20034;-73
2022/11/03 10:17:05;;;;;;;9.82;5.20;;;13.10;99.90;;;;;;5098150;27;20609;-73
2022/11/03 10:19:31;;;;;;;10.18;4.75;;;13.00;99.90;;;;;;5095335;27;20046;-73
2022/11/03 10:21:56;;;;;;;11.73;9.50;;;13.00;99.90;;;;;;5096936;27;20872;-74
2022/11/03 10:24:22;;;;;;;15.63;11.95;;;13.10;99.90;;;;;;5082162;27;20028;-73
2022/11/03 10:26:50;;;;;;;8.40;5.10;;;13.00;99.90;;;;;;5102849;27;20393;-72
2022/11/03 10:29:24;;;;;;;5.93;2.30;;;13.00;99.90;;;;;;5102318;27;20038;-72
2022/11/03 10:31:55;;;;;;;4.00;1.77;;;13.00;99.90;;;;;;5114674;27;20046;-72
2022/11/03 10:34:26;;;;;;;7.88;2.60;;;13.00;99.90;;;;;;5106615;27;20027;-72
2022/11/03 10:37:15;;;;;;;5.17;2.10;;;13.10;99.90;;;;;;5083008;27;20036;-73
2022/11/03 10:39:41;;;;;;;5.13;1.85;;;13.10;99.90;;;;;;5104181;27;20032;-73
2022/11/03 10:42:25;;;;;;;3.80;1.25;;;13.10;99.90;;;;;;5098492;27;20027;-73
2022/11/03 10:45:13;;;;;;;3.33;1.33;;;13.10;99.90;;;;;;5110339;27;20019;-73
2022/11/03 10:47:39;;;;;;;31.33;7.40;;;13.20;99.90;;;;;;5112495;27;20034;-73
2022/11/03 10:50:17;;;;;;;11.32;2.22;;;13.20;99.90;;;;;;5088700;27;20999;-73
2022/11/03 10:52:43;;;;;;;5.70;1.50;;;13.40;99.90;;;;;;5116940;27;20031;-74
2022/11/03 10:55:10;;;;;;;3.78;1.35;;;13.40;99.90;;;;;;5118879;27;20046;-74
2022/11/03 10:57:36;;;;;;;8.88;1.35;;;13.40;99.90;;;;;;5119156;27;20024;-74
2022/11/03 11:00:02;;;;;;;2.42;1.00;;;13.40;99.90;;;;;;5119177;27;20115;-74
2022/11/03 11:02:31;;;;;;;6.05;1.20;;;13.30;99.90;;;;;;5092695;28;20395;-74
2022/11/03 11:04:59;;;;;;;6.55;1.10;;;13.30;99.90;;;;;;5080213;28;20039;-74
2022/11/03 11:07:35;;;;;;;5.63;1.08;;;13.30;99.90;;;;;;5097865;28;20027;-75
2022/11/03 11:10:10;;;;;;;3.90;1.10;;;13.20;99.90;;;;;;5098069;27;20030;-74
2022/11/03 11:12:36;;;;;;;4.82;1.23;;;13.20;99.90;;;;;;5098411;28;20114;-75
2022/11/03 11:15:22;;;;;;;4.50;0.85;;;13.20;99.90;;;;;;5079173;28;20210;-74
2022/11/03 11:17:48;;;;;;;3.33;0.88;;;13.20;99.90;;;;;;5105659;27;20438;-75
2022/11/03 11:20:21;;;;;;;3.30;1.27;;;13.20;99.90;;;;;;5097484;27;20444;-74
2022/11/03 11:22:48;;;;;;;3.25;0.95;;;13.20;99.90;;;;;;5100747;27;20051;-75
2022/11/03 11:25:16;;;;;;;3.40;1.20;;;13.30;99.90;;;;;;5117454;27;20035;-73
2022/11/03 11:27:53;;;;;;;2.92;0.93;;;13.40;99.90;;;;;;5098735;27;20050;-74
2022/11/03 11:30:19;;;;;;;5.38;1.27;;;13.40;99.90;;;;;;5100502;27;20083;-74
2022/11/03 11:32:44;;;;;;;5.80;1.60;;;13.50;99.90;;;;;;5116328;27;20031;-75
2022/11/03 11:35:21;;;;;;;5.00;1.10;;;13.60;99.90;;;;;;5101442;27;20102;-75
2022/11/03 11:37:47;;;;;;;4.13;1.30;;;13.70;99.90;;;;;;5100029;28;20036;-74
2022/11/03 11:40:18;;;;;;;4.68;1.35;;;13.70;99.90;;;;;;5114752;27;20038;-74
2022/11/03 11:43:05;;;;;;;;;;;13.80;99.90;;;;;;5081680;28;20089;-74
2022/11/03 11:46:08;;;;;;;5.60;1.83;;;13.70;99.90;;;;;;5111969;27;19915;-74
2022/11/03 11:48:34;;;;;;;4.10;1.58;;;13.90;99.90;;;;;;5100488;27;20111;-74
2022/11/03 11:51:01;;;;;;;7.22;1.70;;;14.00;99.90;;;;;;5091237;27;20115;-74
2022/11/03 11:53:32;;;;;;;3.92;1.23;;;14.00;99.90;;;;;;5118757;27;20523;-75
2022/11/03 11:56:00;;;;;;;5.47;1.25;;;14.00;99.90;;;;;;5103538;27;20027;-74
2022/11/03 11:58:29;;;;;;;4.38;1.25;;;13.80;99.90;;;;;;5114424;27;20058;-74
2022/11/03 12:01:04;;;;;;;4.78;1.30;;;13.80;99.90;;;;;;5085667;28;20504;-74
2022/11/03 12:03:40;;;;;;;2.92;1.20;;;13.70;99.90;;;;;;5078131;28;20350;-74
2022/11/03 12:06:06;;;;;;;4.30;1.20;;;13.60;99.90;;;;;;5092706;28;20041;-74
2022/11/03 12:08:32;;;;;;;2.30;1.40;;;13.60;99.90;;;;;;5091010;28;20023;-75
2022/11/03 12:11:00;;;;;;;6.40;1.20;;;13.70;99.90;;;;;;5112807;27;20038;-74
2022/11/03 12:14:01;;;;;;;5.63;1.10;;;13.80;99.90;;;;;;5113470;27;20035;-74
2022/11/03 12:16:34;;;;;;;3.72;0.88;;;13.90;99.90;;;;;;5018390;28;20477;-73
2022/11/03 12:19:33;;;;;;;4.38;1.13;;;13.80;99.90;;;;;;5101644;27;20047;-74
2022/11/03 12:21:59;;;;;;;2.50;0.85;;;13.80;99.90;;;;;;5101022;27;20080;-74
2022/11/03 12:24:31;;;;;;;4.50;1.20;;;13.80;99.90;;;;;;5114741;27;20230;-74
2022/11/03 12:26:57;;;;;;;5.35;1.42;;;13.90;99.90;;;;;;5089225;28;20035;-74
2022/11/03 12:29:23;;;;;;;2.22;1.20;;;14.10;99.90;;;;;;5104030;27;20023;-74
2022/11/03 12:31:49;;;;;;;5.35;1.95;;;14.20;99.90;;;;;;5112700;27;20032;-73
2022/11/03 12:34:15;;;;;;;3.15;1.67;;;14.30;99.90;;;;;;5097555;28;20019;-74
2022/11/03 12:36:42;;;;;;;3.58;2.10;;;14.40;99.90;;;;;;5114903;27;20035;-74
2022/11/03 12:39:07;;;;;;;3.50;1.92;;;14.40;99.90;;;;;;5095077;27;20112;-74
2022/11/03 12:41:33;;;;;;;4.38;1.80;;;14.30;99.90;;;;;;5099787;27;20422;-74
2022/11/03 12:43:59;;;;;;;3.88;1.40;;;14.30;99.90;;;;;;5104875;27;20023;-74
2022/11/03 12:46:24;;;;;;;3.47;1.48;;;14.20;99.90;;;;;;5100993;27;20066;-73
2022/11/03 12:48:51;;;;;;;3.95;1.80;;;14.20;99.90;;;;;;5121615;27;20092;-74
2022/11/03 12:51:21;;;;;;;4.13;1.77;;;14.20;99.90;;;;;;5124680;27;20031;-74
2022/11/03 12:53:47;;;;;;;2.53;1.25;;;14.10;99.90;;;;;;5110515;27;20407;-74
2022/11/03 12:56:15;;;;;;;1.95;1.05;;;14.10;99.90;;;;;;5096011;27;20394;-74
2022/11/03 12:58:41;;;;;;;2.72;1.00;;;14.00;99.90;;;;;;5106397;27;20113;-76
2022/11/03 13:01:07;;;;;;;2.22;1.08;;;13.90;99.90;;;;;;5117886;27;20061;-75
2022/11/03 13:03:34;;;;;;;2.35;1.30;;;13.90;99.90;;;;;;5103142;27;20143;-74
2022/11/03 13:06:03;;;;;;;2.63;1.38;;;13.90;99.90;;;;;;5115580;27;20521;-74
2022/11/03 13:08:29;;;;;;;2.15;1.60;;;13.90;99.90;;;;;;5139409;27;20113;-74
2022/11/03 13:10:55;;;;;;;4.22;1.83;;;13.80;99.90;;;;;;5114514;27;20023;-74
2022/11/03 13:13:21;;;;;;;4.10;1.48;;;13.80;99.90;;;;;;5110496;27;20432;-74
2022/11/03 13:15:46;;;;;;;5.97;2.40;;;13.90;99.90;;;;;;5104482;27;20031;-74
2022/11/03 13:18:12;;;;;;;7.13;3.65;;;14.00;99.90;;;;;;5103537;27;20025;-73
2022/11/03 13:20:37;;;;;;;5.90;3.97;;;14.10;99.90;;;;;;5126954;27;20049;-74
2022/11/03 13:23:04;;;;;;;5.03;3.35;;;14.00;99.90;;;;;;5119926;27;20110;-73
2022/11/03 13:25:30;;;;;;;4.45;3.63;;;13.80;99.90;;;;;;5097513;27;20031;-74
2022/11/03 13:27:56;;;;;;;3.17;2.88;;;13.70;99.90;;;;;;5085981;27;20058;-74